createdAt,value
2023-04-22T00:00:18.187Z,100529.22
2023-04-22T00:02:45.914Z,100520.63
2023-04-22T00:05:15.940Z,100515.47
2023-04-22T00:07:44.297Z,100520.63
2023-04-22T00:10:11.839Z,100518.91
2023-04-22T00:12:39.071Z,100522.38
2023-04-22T00:15:06.928Z,100514.63
2023-04-22T00:17:34.008Z,100513.75
2023-04-22T00:20:01.793Z,100503.44
2023-04-22T00:22:28.870Z,100513.75
2023-04-22T00:24:56.045Z,100507.75
2023-04-22T00:27:23.150Z,100501.75
2023-04-22T00:29:50.231Z,100499.16
2023-04-22T00:32:17.353Z,100485.41
2023-04-22T00:34:44.408Z,100497.44
2023-04-22T00:37:11.547Z,100474.25
2023-04-22T00:39:40.065Z,100489.69
2023-04-22T00:42:10.655Z,100484.56
2023-04-22T00:44:37.856Z,100482.84
2023-04-22T00:47:05.063Z,100494.00
2023-04-22T00:49:32.734Z,100484.56
2023-04-22T00:51:59.795Z,100488.88
2023-04-22T00:54:27.311Z,100482.84
2023-04-22T00:56:54.881Z,100482.84
2023-04-22T00:59:24.108Z,100482.84
2023-04-22T01:01:52.298Z,100478.53
2023-04-22T01:04:21.467Z,100479.41
2023-04-22T01:06:49.537Z,100482.84
2023-04-22T01:09:16.673Z,100475.94
2023-04-22T01:11:43.755Z,100482.00
2023-04-22T01:14:10.851Z,100491.44
2023-04-22T01:16:40.018Z,100482.84
2023-04-22T01:19:08.452Z,100482.84
2023-04-22T01:21:35.867Z,100482.00
2023-04-22T01:24:03.313Z,100482.84
2023-04-22T01:26:30.507Z,100484.59
2023-04-22T01:28:57.946Z,100481.13
2023-04-22T01:31:25.204Z,100486.31
2023-04-22T01:33:52.701Z,100484.59
2023-04-22T01:36:19.820Z,100484.56
2023-04-22T01:38:47.904Z,100481.16
2023-04-22T01:41:15.320Z,100488.03
2023-04-22T01:43:44.308Z,100488.03
2023-04-22T01:46:11.718Z,100481.13
2023-04-22T01:48:39.131Z,100482.00
2023-04-22T01:51:06.259Z,100482.00
2023-04-22T01:53:33.260Z,100477.72
2023-04-22T01:56:00.435Z,100479.41
2023-04-22T01:58:30.022Z,100472.53
2023-04-22T02:00:57.864Z,100475.97
2023-04-22T02:03:25.049Z,100470.81
2023-04-22T02:05:53.908Z,100479.41
2023-04-22T02:08:20.941Z,100472.50
2023-04-22T02:10:48.012Z,100474.25
2023-04-22T02:13:15.084Z,100472.50
2023-04-22T02:15:42.186Z,100477.66
2023-04-22T02:18:10.394Z,100475.97
2023-04-22T02:20:37.706Z,100473.38
2023-04-22T02:23:06.764Z,100475.09
2023-04-22T02:25:33.858Z,100470.81
2023-04-22T02:28:01.040Z,100462.19
2023-04-22T02:30:28.218Z,100467.31
2023-04-22T02:32:56.283Z,100462.16
2023-04-22T02:35:23.458Z,100472.41
2023-04-22T02:37:51.431Z,100468.97
2023-04-22T02:40:18.915Z,100474.09
2023-04-22T02:42:45.972Z,100458.63
2023-04-22T02:45:13.066Z,100468.97
2023-04-22T02:47:40.483Z,100460.34
2023-04-22T02:50:08.106Z,100457.75
2023-04-22T02:52:35.157Z,100461.16
2023-04-22T02:55:02.287Z,100467.13
2023-04-22T02:57:29.494Z,100465.44
2023-04-22T02:59:57.280Z,100458.56
2023-04-22T03:02:24.863Z,100460.28
2023-04-22T03:05:05.690Z,100455.16
2023-04-22T03:07:32.782Z,100447.41
2023-04-22T03:10:00.234Z,100462.00
2023-04-22T03:12:27.370Z,100458.56
2023-04-22T03:14:54.351Z,100460.28
2023-04-22T03:17:23.374Z,100467.19
2023-04-22T03:19:50.431Z,100459.47
2023-04-22T03:22:17.528Z,100456.03
2023-04-22T03:24:44.822Z,100462.03
2023-04-22T03:27:11.951Z,100463.75
2023-04-22T03:29:40.186Z,100461.16
2023-04-22T03:32:08.020Z,100463.66
2023-04-22T03:34:37.428Z,100452.47
2023-04-22T03:37:07.205Z,100455.03
2023-04-22T03:39:34.294Z,100455.91
2023-04-22T03:42:01.840Z,100456.75
2023-04-22T03:44:29.511Z,100451.59
2023-04-22T03:46:56.616Z,100461.88
2023-04-22T03:49:28.190Z,100460.19
2023-04-22T03:51:56.517Z,100457.59
2023-04-22T03:54:25.748Z,100458.47
2023-04-22T03:56:53.207Z,100458.47
2023-04-22T03:59:22.547Z,100460.19
2023-04-22T04:01:51.963Z,100458.47
2023-04-22T04:04:23.696Z,100458.47
2023-04-22T04:06:57.287Z,100453.31
2023-04-22T04:09:24.969Z,100451.56
2023-04-22T04:11:52.472Z,100455.03
2023-04-22T04:14:20.488Z,100449.88
2023-04-22T04:16:49.010Z,100458.47
2023-04-22T04:19:24.730Z,100453.34
2023-04-22T04:21:52.138Z,100450.78
2023-04-22T04:24:20.570Z,100449.91
2023-04-22T04:26:50.246Z,100445.63
2023-04-22T04:29:27.176Z,100455.13
2023-04-22T04:32:10.124Z,100455.13
2023-04-22T04:34:39.999Z,100451.66
2023-04-22T04:37:09.311Z,100458.56
2023-04-22T04:39:50.738Z,100444.81
2023-04-22T04:42:21.356Z,100454.28
2023-04-22T04:44:53.893Z,100447.41
2023-04-22T04:47:22.792Z,100461.19
2023-04-22T04:49:54.586Z,100448.28
2023-04-22T04:52:22.210Z,100450.91
2023-04-22T04:54:49.287Z,100451.84
2023-04-22T04:57:16.466Z,100457.00
2023-04-22T04:59:43.533Z,100451.88
2023-04-22T05:02:11.241Z,100455.31
2023-04-22T05:04:38.695Z,100451.91
2023-04-22T05:07:05.969Z,100438.13
2023-04-22T05:09:37.650Z,100444.16
2023-04-22T05:12:05.501Z,100451.88
2023-04-22T05:14:32.594Z,100460.47
2023-04-22T05:16:59.846Z,100445.00
2023-04-22T05:19:28.672Z,100457.03
2023-04-22T05:21:56.924Z,100451.84
2023-04-22T05:24:24.372Z,100445.81
2023-04-22T05:26:51.947Z,100460.44
2023-04-22T05:29:19.944Z,100460.41
2023-04-22T05:31:47.080Z,100450.06
2023-04-22T05:34:14.398Z,100457.78
2023-04-22T05:36:42.146Z,100451.75
2023-04-22T05:39:09.255Z,100446.56
2023-04-22T05:41:36.387Z,100451.69
2023-04-22T05:44:07.981Z,100446.47
2023-04-22T05:46:35.221Z,100442.09
2023-04-22T05:49:02.531Z,100448.13
2023-04-22T05:51:58.598Z,100437.75
2023-04-22T05:54:32.300Z,100440.31
2023-04-22T05:56:59.637Z,100437.66
2023-04-22T05:59:26.874Z,100442.75
2023-04-22T06:01:54.271Z,100439.22
2023-04-22T06:04:21.643Z,100451.22
2023-04-22T06:06:53.796Z,100439.06
2023-04-22T06:09:21.766Z,100441.56
2023-04-22T06:11:48.907Z,100439.69
2023-04-22T06:14:16.051Z,100440.41
2023-04-22T06:16:44.777Z,100438.44
2023-04-22T06:19:11.876Z,100438.25
2023-04-22T06:21:40.696Z,100434.69
2023-04-22T06:24:09.187Z,100441.44
2023-04-22T06:26:37.672Z,100433.44
2023-04-22T06:29:05.645Z,100434.06
2023-04-22T06:31:33.892Z,100437.28
2023-04-22T06:34:01.012Z,100433.63
2023-04-22T06:36:30.433Z,100426.56
2023-04-22T06:39:01.365Z,100431.53
2023-04-22T06:41:50.387Z,100435.47
2023-04-22T06:44:40.775Z,100431.75
2023-04-22T06:47:46.604Z,100432.47
2023-04-22T06:50:16.590Z,100426.28
2023-04-22T06:52:51.244Z,100432.00
2023-04-22T06:55:18.558Z,100430.03
2023-04-22T06:57:45.836Z,100431.56
2023-04-22T07:00:13.362Z,100421.72
2023-04-22T07:02:42.044Z,100426.56
2023-04-22T07:05:09.594Z,100432.31
2023-04-22T07:07:36.943Z,100421.72
2023-04-22T07:10:04.921Z,100423.19
2023-04-22T07:12:37.684Z,100421.97
2023-04-22T07:15:05.194Z,100420.72
2023-04-22T07:17:32.264Z,100427.97
2023-04-22T07:19:59.708Z,100423.38
2023-04-22T07:22:26.803Z,100421.09
2023-04-22T07:24:53.894Z,100407.84
2023-04-22T07:27:20.937Z,100416.75
2023-04-22T07:29:48.041Z,100421.41
2023-04-22T07:32:15.067Z,100417.53
2023-04-22T07:34:42.127Z,100411.19
2023-04-22T07:37:09.707Z,100414.97
2023-04-22T07:39:37.099Z,100412.66
2023-04-22T07:42:04.486Z,100405.19
2023-04-22T07:44:31.849Z,100409.94
2023-04-22T07:46:59.663Z,100408.56
2023-04-22T07:49:26.984Z,100398.69
2023-04-22T07:51:54.034Z,100406.88
2023-04-22T07:54:21.162Z,100400.41
2023-04-22T07:56:48.319Z,100402.31
2023-04-22T07:59:15.520Z,100402.66
2023-04-22T08:01:42.792Z,100397.88
2023-04-22T08:04:10.218Z,100388.81
2023-04-22T08:06:37.640Z,100391.75
2023-04-22T08:09:04.800Z,100383.31
2023-04-22T08:11:32.062Z,100385.47
2023-04-22T08:13:59.103Z,100391.13
2023-04-22T08:16:26.320Z,100377.78
2023-04-22T08:18:53.458Z,100381.91
2023-04-22T08:21:21.182Z,100383.50
2023-04-22T08:23:48.276Z,100381.47
2023-04-22T08:26:17.023Z,100378.97
2023-04-22T08:28:44.385Z,100382.28
2023-04-22T08:31:13.089Z,100386.53
2023-04-22T08:33:41.883Z,100387.06
2023-04-22T08:36:11.284Z,100378.13
2023-04-22T08:38:38.445Z,100374.72
2023-04-22T08:41:07.212Z,100382.63
2023-04-22T08:43:34.833Z,100385.88
2023-04-22T08:46:02.418Z,100378.00
2023-04-22T08:48:29.498Z,100378.41
2023-04-22T08:50:58.158Z,100387.50
2023-04-22T08:53:25.287Z,100385.47
2023-04-22T08:55:55.686Z,100383.97
2023-04-22T08:58:24.376Z,100377.59
2023-04-22T09:00:52.050Z,100378.75
2023-04-22T09:03:20.013Z,100379.41
2023-04-22T09:05:48.823Z,100375.38
2023-04-22T09:08:16.233Z,100381.09
2023-04-22T09:10:43.430Z,100376.84
2023-04-22T09:13:10.842Z,100374.16
2023-04-22T09:15:37.890Z,100376.13
2023-04-22T09:18:05.734Z,100373.41
2023-04-22T09:20:32.802Z,100362.66
2023-04-22T09:23:04.240Z,100364.50
2023-04-22T09:25:35.237Z,100362.38
2023-04-22T09:28:03.448Z,100372.44
2023-04-22T09:30:31.788Z,100368.28
2023-04-22T09:33:00.998Z,100358.56
2023-04-22T09:35:34.133Z,100366.47
2023-04-22T09:38:07.734Z,100364.03
2023-04-22T09:40:36.402Z,100363.19
2023-04-22T09:43:06.755Z,100353.31
2023-04-22T09:45:39.718Z,100346.97
2023-04-22T09:48:20.115Z,100352.66
2023-04-22T09:50:48.189Z,100348.41
2023-04-22T09:53:20.588Z,100342.69
2023-04-22T09:55:52.043Z,100342.41
2023-04-22T09:58:24.037Z,100344.69
2023-04-22T10:00:54.126Z,100337.31
2023-04-22T10:03:21.668Z,100337.31
2023-04-22T10:05:48.902Z,100334.84
2023-04-22T10:08:17.179Z,100336.25
2023-04-22T10:10:45.245Z,100327.28
2023-04-22T10:13:12.686Z,100334.22
2023-04-22T10:15:48.877Z,100330.69
2023-04-22T10:18:21.738Z,100322.03
2023-04-22T10:20:51.079Z,100322.41
2023-04-22T10:23:24.380Z,100314.59
2023-04-22T10:25:55.138Z,100316.00
2023-04-22T10:28:24.112Z,100305.63
2023-04-22T10:30:51.412Z,100315.84
2023-04-22T10:33:21.496Z,100310.72
2023-04-22T10:36:18.209Z,100301.69
2023-04-22T10:38:51.147Z,100314.09
2023-04-22T10:41:24.417Z,100315.34
2023-04-22T10:44:02.566Z,100300.41
2023-04-22T10:46:37.562Z,100303.47
2023-04-22T10:49:13.308Z,100299.09
2023-04-22T10:51:40.782Z,100293.50
2023-04-22T10:54:36.521Z,100294.72
2023-04-22T10:57:19.376Z,100297.78
2023-04-22T10:59:53.440Z,100294.09
2023-04-22T11:02:21.935Z,100285.94
2023-04-22T11:04:50.046Z,100285.38
2023-04-22T11:07:26.981Z,100286.72
2023-04-22T11:10:07.647Z,100278.50
2023-04-22T11:12:42.212Z,100292.84
2023-04-22T11:15:14.901Z,100277.72
2023-04-22T11:17:46.465Z,100282.31
2023-04-22T11:20:18.114Z,100275.53
2023-04-22T11:22:54.338Z,100270.00
2023-04-22T11:25:22.658Z,100279.56
2023-04-22T11:27:50.154Z,100271.63
2023-04-22T11:30:20.053Z,100270.59
2023-04-22T11:32:48.292Z,100268.03
2023-04-22T11:35:21.012Z,100266.59
2023-04-22T11:37:52.273Z,100255.84
2023-04-22T11:40:31.511Z,100259.91
2023-04-22T11:43:01.172Z,100263.16
2023-04-22T11:45:30.578Z,100261.13
2023-04-22T11:47:58.310Z,100257.72
2023-04-22T11:50:31.062Z,100263.47
2023-04-22T11:53:24.303Z,100255.00
2023-04-22T11:55:52.149Z,100257.19
2023-04-22T11:58:28.384Z,100251.59
2023-04-22T12:00:57.888Z,100258.53
2023-04-22T12:03:29.940Z,100248.97
2023-04-22T12:06:02.472Z,100243.44
2023-04-22T12:08:36.947Z,100247.53
2023-04-22T12:11:06.436Z,100251.50
2023-04-22T12:13:45.688Z,100244.72
2023-04-22T12:16:15.053Z,100239.91
2023-04-22T12:18:48.419Z,100230.78
2023-04-22T12:21:18.222Z,100235.72
2023-04-22T12:23:48.097Z,100233.94
2023-04-22T12:26:17.029Z,100239.47
2023-04-22T12:28:45.496Z,100234.34
2023-04-22T12:31:14.500Z,100236.84
2023-04-22T12:33:42.304Z,100230.97
2023-04-22T12:36:10.138Z,100224.31
2023-04-22T12:38:37.806Z,100227.88
2023-04-22T12:41:06.614Z,100222.16
2023-04-22T12:43:36.932Z,100218.28
2023-04-22T12:46:08.608Z,100219.06
2023-04-22T12:48:38.886Z,100213.81
2023-04-22T12:51:06.998Z,100213.03
2023-04-22T12:53:34.486Z,100197.59
2023-04-22T12:56:01.676Z,100203.59
2023-04-22T12:58:28.809Z,100200.78
2023-04-22T13:00:56.114Z,100203.28
2023-04-22T13:03:23.378Z,100196.56
2023-04-22T13:05:51.090Z,100196.19
2023-04-22T13:08:18.353Z,100195.09
2023-04-22T13:10:45.502Z,100193.84
2023-04-22T13:15:42.686Z,100186.75
2023-04-22T13:18:09.818Z,100179.97
2023-04-22T13:20:37.086Z,100179.19
2023-04-22T13:23:04.990Z,100183.66
2023-04-22T13:25:32.382Z,100175.25
2023-04-22T13:27:59.519Z,100169.91
2023-04-22T13:30:26.661Z,100176.88
2023-04-22T13:32:53.819Z,100174.47
2023-04-22T13:35:21.156Z,100168.50
2023-04-22T13:37:48.224Z,100172.22
2023-04-22T13:40:15.476Z,100165.28
2023-04-22T13:42:44.532Z,100161.03
2023-04-22T13:45:11.679Z,100153.38
2023-04-22T13:47:38.818Z,100158.63
2023-04-22T13:50:06.627Z,100148.81
2023-04-22T13:52:34.154Z,100152.22
2023-04-22T13:55:02.806Z,100151.38
2023-04-22T13:57:29.981Z,100149.81
2023-04-22T13:59:57.377Z,100143.03
2023-04-22T14:02:24.550Z,100146.03
2023-04-22T14:04:52.214Z,100147.00
2023-04-22T14:07:19.461Z,100140.13
2023-04-22T14:09:46.645Z,100140.34
2023-04-22T14:12:13.826Z,100138.66
2023-04-22T14:14:41.060Z,100137.25
2023-04-22T14:17:08.419Z,100133.88
2023-04-22T14:19:39.178Z,100128.63
2023-04-22T14:22:06.864Z,100136.41
2023-04-22T14:24:34.161Z,100125.38
2023-04-22T14:27:03.952Z,100123.66
2023-04-22T14:29:32.029Z,100126.38
2023-04-22T14:31:59.735Z,100116.72
2023-04-22T14:34:27.452Z,100111.47
2023-04-22T14:36:55.020Z,100112.31
2023-04-22T14:39:22.246Z,100112.31
2023-04-22T14:41:49.716Z,100095.03
2023-04-22T14:44:16.844Z,100100.34
2023-04-22T14:46:43.977Z,100104.81
2023-04-22T14:49:11.220Z,100099.81
2023-04-22T14:51:38.317Z,100101.72
2023-04-22T14:54:05.737Z,100077.00
2023-04-22T14:56:32.924Z,100090.09
2023-04-22T14:58:59.993Z,100095.34
2023-04-22T15:01:27.201Z,100084.84
2023-04-22T15:03:54.477Z,100092.81
2023-04-22T15:06:23.208Z,100092.13
2023-04-22T15:08:54.267Z,100088.09
2023-04-22T15:11:21.469Z,100091.53
2023-04-22T15:13:48.649Z,100094.25
2023-04-22T15:16:15.804Z,100088.13
2023-04-22T15:18:43.152Z,100076.97
2023-04-22T15:21:10.776Z,100083.03
2023-04-22T15:23:37.907Z,100084.13
2023-04-22T15:26:05.333Z,100086.91
2023-04-22T15:28:33.331Z,100078.41
2023-04-22T15:31:01.628Z,100080.22
2023-04-22T15:33:28.756Z,100081.22
2023-04-22T15:35:55.999Z,100078.66
2023-04-22T15:38:23.759Z,100078.66
2023-04-22T15:40:50.841Z,100085.69
2023-04-22T15:43:17.945Z,100082.22
2023-04-22T15:45:45.134Z,100080.50
2023-04-22T15:48:12.252Z,100084.09
2023-04-22T15:50:40.872Z,100083.31
2023-04-22T15:53:07.997Z,100080.00
2023-04-22T15:55:35.103Z,100075.66
2023-04-22T15:58:02.850Z,100076.59
2023-04-22T16:00:29.955Z,100074.91
2023-04-22T16:02:57.184Z,100072.34
2023-04-22T16:05:25.279Z,100071.53
2023-04-22T16:07:54.127Z,100071.53
2023-04-22T16:10:21.678Z,100070.75
2023-04-22T16:12:49.423Z,100064.03
2023-04-22T16:15:17.871Z,100066.75
2023-04-22T16:17:45.199Z,100068.72
2023-04-22T16:20:12.404Z,100061.91
2023-04-22T16:22:39.543Z,100064.47
2023-04-22T16:25:07.513Z,100064.59
2023-04-22T16:27:34.657Z,100069.13
2023-04-22T16:30:02.120Z,100062.31
2023-04-22T16:32:29.300Z,100064.16
2023-04-22T16:34:56.392Z,100057.38
2023-04-22T16:37:23.545Z,100048.88
2023-04-22T16:39:51.511Z,100054.09
2023-04-22T16:42:18.894Z,100049.84
2023-04-22T16:44:46.044Z,100054.38
2023-04-22T16:47:13.191Z,100044.03
2023-04-22T16:49:40.435Z,100044.16
2023-04-22T16:52:07.648Z,100043.41
2023-04-22T16:54:34.761Z,100041.75
2023-04-22T16:57:02.923Z,100044.56
2023-04-22T16:59:30.017Z,100049.94
2023-04-22T17:01:57.412Z,100045.75
2023-04-22T17:04:24.706Z,100038.16
2023-04-22T17:06:52.071Z,100042.69
2023-04-22T17:09:19.276Z,100040.22
2023-04-22T17:11:46.468Z,100038.69
2023-04-22T17:14:14.049Z,100038.00
2023-04-22T17:16:41.253Z,100024.41
2023-04-22T17:19:08.309Z,100029.81
2023-04-22T17:21:35.493Z,100034.34
2023-04-22T17:24:04.030Z,100029.25
2023-04-22T17:26:31.199Z,100021.84
2023-04-22T17:28:58.370Z,100033.28
2023-04-22T17:31:25.685Z,100033.50
2023-04-22T17:33:52.916Z,100031.25
2023-04-22T17:36:20.209Z,100029.69
2023-04-22T17:38:47.320Z,100032.56
2023-04-22T17:41:14.666Z,100028.56
2023-04-22T17:43:41.885Z,100024.44
2023-04-22T17:46:09.190Z,100026.50
2023-04-22T17:48:36.934Z,100030.25
2023-04-22T17:51:07.578Z,100036.66
2023-04-22T17:53:34.830Z,100034.44
2023-04-22T17:56:02.027Z,100026.41
2023-04-22T17:58:29.164Z,100031.84
2023-04-22T18:00:58.742Z,100029.75
2023-04-22T18:03:26.520Z,100033.66
2023-04-22T18:05:53.815Z,100035.00
2023-04-22T18:08:20.964Z,100042.34
2023-04-22T18:10:48.163Z,100046.19
2023-04-22T18:13:15.731Z,100046.47
2023-04-22T18:15:42.851Z,100038.94
2023-04-22T18:18:10.071Z,100048.78
2023-04-22T18:20:37.275Z,100052.50
2023-04-22T18:23:04.411Z,100049.31
2023-04-22T18:25:31.590Z,100049.53
2023-04-22T18:27:58.726Z,100048.03
2023-04-22T18:30:25.831Z,100046.47
2023-04-22T18:32:53.329Z,100039.84
2023-04-22T18:35:20.965Z,100045.03
2023-04-22T18:37:48.098Z,100047.81
2023-04-22T18:40:17.422Z,100047.03
2023-04-22T18:42:45.045Z,100052.34
2023-04-22T18:45:12.416Z,100055.97
2023-04-22T18:47:39.664Z,100049.13
2023-04-22T18:50:07.517Z,100058.03
2023-04-22T18:52:34.871Z,100051.31
2023-04-22T18:55:02.103Z,100053.19
2023-04-22T18:57:29.405Z,100044.66
2023-04-22T18:59:56.622Z,100046.53
2023-04-22T19:02:24.303Z,100046.69
2023-04-22T19:04:52.871Z,100037.41
2023-04-22T19:07:20.046Z,100036.72
2023-04-22T19:09:47.106Z,100036.81
2023-04-22T19:12:16.740Z,100034.25
2023-04-22T19:14:44.000Z,100033.47
2023-04-22T19:17:11.242Z,100028.38
2023-04-22T19:19:38.836Z,100031.88
2023-04-22T19:22:06.109Z,100030.19
2023-04-22T19:24:35.410Z,100034.50
2023-04-22T19:27:03.045Z,100033.66
2023-04-22T19:29:30.165Z,100035.38
2023-04-22T19:31:57.583Z,100027.69
2023-04-22T19:34:24.784Z,100021.75
2023-04-22T19:36:51.815Z,100037.34
2023-04-22T19:39:19.068Z,100033.03
2023-04-22T19:41:46.248Z,100041.00
2023-04-22T19:44:13.329Z,100034.25
2023-04-22T19:46:40.829Z,100024.88
2023-04-22T19:49:08.722Z,100029.13
2023-04-22T19:51:36.933Z,100022.38
2023-04-22T19:54:05.096Z,100027.59
2023-04-22T19:56:32.414Z,100022.63
2023-04-22T19:58:59.562Z,100019.13
2023-04-22T20:01:26.990Z,100020.13
2023-04-22T20:03:54.558Z,100025.25
2023-04-22T20:06:22.883Z,100017.53
2023-04-22T20:08:53.733Z,100020.94
2023-04-22T20:11:21.786Z,100031.44
2023-04-22T20:13:52.011Z,100020.22
2023-04-22T20:16:20.976Z,100023.66
2023-04-22T20:18:48.458Z,100014.94
2023-04-22T20:21:16.341Z,100004.69
2023-04-22T20:23:43.478Z,100014.09
2023-04-22T20:26:11.558Z,100015.75
2023-04-22T20:28:48.952Z,100016.50
2023-04-22T20:31:18.838Z,100016.47
2023-04-22T20:33:46.867Z,100013.81
2023-04-22T20:36:17.194Z,100008.59
2023-04-22T20:38:48.893Z,100011.97
2023-04-22T20:41:20.315Z,100012.06
2023-04-22T20:43:47.420Z,100009.47
2023-04-22T20:46:14.543Z,100010.28
2023-04-22T20:48:41.790Z,100013.78
2023-04-22T20:51:08.890Z,100009.53
2023-04-22T20:53:36.474Z,100006.22
2023-04-22T20:56:05.129Z,100004.63
2023-04-22T20:58:33.455Z,100010.69
2023-04-22T21:01:00.575Z,100010.69
2023-04-22T21:03:28.129Z,100009.00
2023-04-22T21:05:56.539Z,100004.72
2023-04-22T21:08:25.277Z,100005.66
2023-04-22T21:10:54.214Z,100001.38
2023-04-22T21:13:22.407Z,100007.44
2023-04-22T21:15:57.974Z,100010.13
2023-04-22T21:18:26.576Z,100007.59
2023-04-22T21:20:56.389Z,100005.09
2023-04-22T21:23:24.639Z,100006.94
2023-04-22T21:25:54.832Z,100013.91
2023-04-22T21:28:23.097Z,100004.41
2023-04-22T21:30:50.458Z,100003.59
2023-04-22T21:33:17.606Z,100014.91
2023-04-22T21:35:44.682Z,100000.34
2023-04-22T21:38:12.071Z,100004.69
2023-04-22T21:40:39.148Z,100008.31
2023-04-22T21:43:06.299Z,100000.50
2023-04-22T21:45:34.644Z,100004.03
2023-04-22T21:48:02.454Z,100008.34
2023-04-22T21:50:32.730Z,100006.75
2023-04-22T21:53:00.012Z,100011.91
2023-04-22T21:55:27.188Z,100017.16
2023-04-22T21:57:54.219Z,100018.94
2023-04-22T22:00:21.329Z,100017.25
2023-04-22T22:02:49.151Z,100017.25
2023-04-22T22:05:16.493Z,100017.41
2023-04-22T22:07:45.145Z,100015.75
2023-04-22T22:10:15.023Z,100014.06
2023-04-22T22:12:42.499Z,100010.78
2023-04-22T22:15:10.145Z,100016.84
2023-04-22T22:17:40.632Z,100016.00
2023-04-22T22:20:13.761Z,100009.16
2023-04-22T22:22:42.143Z,100011.88
2023-04-22T22:25:11.092Z,100012.88
2023-04-22T22:27:47.184Z,100008.59
2023-04-22T22:30:16.139Z,100005.19
2023-04-22T22:32:43.354Z,100014.81
2023-04-22T22:35:11.091Z,100004.50
2023-04-22T22:37:38.254Z,100004.59
2023-04-22T22:40:06.209Z,100002.97
2023-04-22T22:42:33.252Z,100006.34
2023-04-22T22:45:00.432Z,100002.97
2023-04-22T22:47:27.503Z,99998.72
2023-04-22T22:49:54.663Z,99998.84
2023-04-22T22:52:22.167Z,100005.75
2023-04-22T22:54:50.315Z,100001.44
2023-04-22T22:57:17.367Z,100001.53
2023-04-22T22:59:44.475Z,100007.63
2023-04-22T23:02:13.907Z,99990.53
2023-04-22T23:04:41.312Z,99998.16
2023-04-22T23:07:08.811Z,99996.47
2023-04-22T23:09:35.964Z,99993.91
2023-04-22T23:12:03.140Z,99993.13
2023-04-22T23:14:30.276Z,99988.84
2023-04-22T23:16:57.365Z,99988.84
2023-04-22T23:19:25.835Z,99982.81
2023-04-22T23:21:55.321Z,99986.34
2023-04-22T23:24:22.748Z,99984.66
2023-04-22T23:26:50.003Z,99983.75
2023-04-22T23:29:17.360Z,99982.91
2023-04-22T23:31:45.165Z,99979.44
2023-04-22T23:34:15.218Z,99976.03
2023-04-22T23:36:43.116Z,99964.91
2023-04-22T23:39:10.064Z,99979.56
2023-04-22T23:41:37.176Z,99968.41
2023-04-22T23:44:04.276Z,99958.94
2023-04-22T23:46:31.468Z,99967.50
2023-04-22T23:48:59.084Z,99962.31
2023-04-22T23:51:26.710Z,99955.44
2023-04-22T23:53:53.718Z,99956.28
2023-04-22T23:56:22.986Z,99953.75
2023-04-22T23:58:51.214Z,99952.13
